Data for 02/14/2005

Time Sea-Level Adjusted Pressure Absolute Pressure Temperature Relative Humidity Dew Point   
(mb) (inHg) (mb) (inHg) (C) (F) (%) (C) (F)
00:05 1012 29.88 841 24.83 -2.7 27.2 97 -3.1 26.5
00:10 1012 29.88 841 24.83 -2.8 27 98 -3.1 26.5
00:15 1012 29.88 841 24.83 -2.7 27.1 98 -3 26.6
00:20 1012 29.88 841 24.83 -2.7 27.1 97 -3.1 26.4
00:25 1012 29.88 841 24.83 -3 26.6 98 -3.3 26.1
00:30 1012 29.88 841 24.83 -3 26.5 98 -3.3 26.1
00:35 1012 29.88 841 24.83 -2.9 26.7 98 -3.2 26.3
00:40 1012 29.88 841 24.83 -2.9 26.8 98 -3.2 26.3
00:45 1012 29.88 841 24.83 -2.8 26.9 98 -3.1 26.4
00:50 1012 29.88 841 24.83 -2.8 26.9 98 -3.1 26.4
00:55 1012 29.88 841 24.83 -2.8 27 98 -3.1 26.5
01:00 1012 29.88 841 24.83 -2.8 27 98 -3.1 26.5
01:05 1012 29.88 841 24.83 -2.8 27 98 -3.1 26.5
01:10 1012 29.88 841 24.83 -2.8 26.9 97 -3.2 26.3
01:15 1012 29.88 841 24.83 -3 26.7 97 -3.3 26
01:20 1012 29.88 841 24.83 -3 26.6 98 -3.3 26
01:25 1012 29.88 841 24.83 -3.1 26.3 98 -3.5 25.8
01:30 1012 29.88 841 24.83 -3.1 26.4 98 -3.4 25.8
01:35 1012 29.88 841 24.83 -3.2 26.3 98 -3.5 25.7
01:40 1012 29.88 841 24.83 -3.2 26.3 98 -3.5 25.7
01:45 1012 29.88 841 24.83 -3.2 26.2 98 -3.5 25.6
01:50 1012 29.88 841 24.83 -3.3 26 98 -3.6 25.5
01:55 1012 29.88 841 24.83 -3.3 26 97 -3.8 25.2
02:00 1012 29.88 841 24.83 -3.3 26 96 -3.8 25.1
02:05 1012 29.88 841 24.83 -3.4 25.8 97 -3.9 25
02:10 1012 29.88 841 24.83 -3.5 25.8 97 -3.8 25.1
02:15 1012 29.88 841 24.83 -3.5 25.7 97 -3.9 25.1
02:20 1012 29.88 842 24.86 -3.6 25.6 98 -3.9 25
02:25 1012 29.88 842 24.86 -3.5 25.6 98 -3.8 25.1
02:30 1012 29.88 842 24.86 -3.6 25.6 98 -3.9 25.1
02:35 1012 29.88 842 24.86 -3.5 25.8 98 -3.7 25.3
02:40 1012 29.88 841 24.83 -3.5 25.8 97 -3.9 25
02:45 1012 29.88 841 24.83 -3.6 25.6 96 -4.2 24.5
02:50 1012 29.88 841 24.83 -3.6 25.6 96 -4.1 24.6
02:55 1012 29.88 841 24.83 -3.7 25.4 95 -4.3 24.3
03:00 1012 29.88 841 24.83 -3.7 25.4 96 -4.3 24.3
03:05 1012 29.88 841 24.83 -3.6 25.5 95 -4.3 24.3
03:10 1012 29.88 841 24.83 -3.6 25.4 95 -4.3 24.2
03:15 1012 29.88 841 24.83 -3.7 25.4 95 -4.3 24.2
03:20 1012 29.88 841 24.83 -3.7 25.4 95 -4.4 24.1
03:25 1012 29.88 841 24.83 -3.6 25.5 94 -4.4 24
03:30 1012 29.88 841 24.83 -3.7 25.4 94 -4.4 24
03:35 1012 29.88 841 24.83 -3.7 25.4 94 -4.4 24
03:40 1012 29.88 841 24.83 -3.6 25.5 93 -4.5 23.8
03:45 1012 29.88 841 24.83 -3.5 25.7 93 -4.5 23.9
03:50 1012 29.88 842 24.86 -3.5 25.6 93 -4.6 23.8
03:55 1012 29.88 842 24.86 -3.5 25.8 91 -4.8 23.4
04:00 1013 29.91 842 24.86 -3.3 26.1 92 -4.4 24.1
04:05 1013 29.91 842 24.86 -3.3 26 92 -4.4 24.1
04:10 1013 29.91 842 24.86 -3.2 26.3 93 -4.2 24.5
04:15 1013 29.91 842 24.86 -3.1 26.3 92 -4.2 24.4
04:20 1013 29.91 842 24.86 -3.1 26.4 91 -4.4 24.1
04:25 1013 29.91 842 24.86 -3.1 26.5 87 -4.9 23.2
04:30 1013 29.91 842 24.86 -3.1 26.5 87 -5 23.1
04:35 1013 29.91 842 24.86 -3.1 26.4 87 -4.9 23.2
04:40 1013 29.91 842 24.86 -3.1 26.4 86 -5.1 22.8
04:45 1013 29.91 842 24.86 -3.1 26.4 87 -5 23
04:50 1013 29.91 842 24.86 -3.1 26.5 85 -5.3 22.5
04:55 1013 29.91 842 24.86 -3.1 26.4 86 -5.1 22.7
05:00 1013 29.91 842 24.86 -3.1 26.4 84 -5.4 22.2
05:05 1013 29.91 842 24.86 -3.2 26.3 84 -5.6 22
05:10 1013 29.91 842 24.86 -3.4 25.8 83 -5.9 21.4
05:15 1013 29.91 842 24.86 -3.6 25.6 82 -6.2 20.9
05:20 1013 29.91 842 24.86 -3.5 25.7 78 -6.7 19.9
05:25 1013 29.91 842 24.86 -3.3 26.1 78 -6.6 20.1
05:30 1013 29.91 842 24.86 -3.4 26 75 -7.2 19.1
05:35 1013 29.91 843 24.89 -3.3 26 74 -7.4 18.7
05:40 1013 29.91 843 24.89 -3.4 26 72 -7.7 18.2
05:45 1013 29.91 843 24.89 -3.4 25.9 70 -8.1 17.5
05:50 1013 29.91 843 24.89 -3.5 25.7 72 -7.9 17.9
05:55 1014 29.94 843 24.89 -3.6 25.5 68 -8.7 16.4
06:00 1014 29.94 843 24.89 -3.7 25.4 70 -8.5 16.8
06:05 1014 29.94 843 24.89 -3.8 25.2 72 -8.1 17.3
06:10 1014 29.94 843 24.89 -3.9 25 70 -8.6 16.6
06:15 1014 29.94 843 24.89 -3.9 24.9 70 -8.6 16.5
06:20 1014 29.94 843 24.89 -4 24.7 70 -8.7 16.3
06:25 1014 29.94 843 24.89 -4.1 24.6 69 -9 15.9
06:30 1014 29.94 843 24.89 -4.2 24.4 70 -8.9 16
06:35 1014 29.94 843 24.89 -4.3 24.2 68 -9.3 15.2
06:40 1014 29.94 843 24.89 -4.2 24.4 66 -9.8 14.4
06:45 1014 29.94 843 24.89 -4.1 24.5 65 -9.7 14.5
06:50 1014 29.94 843 24.89 -4.2 24.4 66 -9.6 14.7
06:55 1014 29.94 843 24.89 -4.2 24.5 65 -9.7 14.5
07:00 1014 29.94 843 24.89 -4.2 24.4 65 -9.9 14.3
07:05 1014 29.94 843 24.89 -4.3 24.2 65 -9.9 14.3
07:10 1014 29.94 843 24.89 -4.4 24.1 66 -9.7 14.5
07:15 1014 29.94 843 24.89 -4.5 23.9 67 -9.7 14.5
07:20 1014 29.94 843 24.89 -4.6 23.7 67 -9.8 14.4
07:25 1014 29.94 843 24.89 -4.7 23.5 67 -9.9 14.3
07:30 1014 29.94 843 24.89 -4.8 23.3 69 -9.6 14.7
07:35 1014 29.94 843 24.89 -4.8 23.3 67 -10 14.1
07:40 1014 29.94 843 24.89 -4.9 23.1 67 -10.1 13.9
07:45 1014 29.94 843 24.89 -5 23.1 69 -9.9 14.3
07:50 1014 29.94 843 24.89 -5 22.9 68 -10.1 13.8
07:55 1014 29.94 843 24.89 -5 23 66 -10.3 13.4
08:00 1014 29.94 843 24.89 -4.9 23.1 67 -10.3 13.5
08:05 1014 29.94 844 24.92 -4.9 23.2 67 -10.1 13.8
08:10 1014 29.94 844 24.92 -4.8 23.4 65 -10.3 13.5
08:15 1014 29.94 844 24.92 -4.7 23.5 65 -10.3 13.5
08:20 1014 29.94 844 24.92 -4.7 23.6 65 -10.3 13.4
08:25 1014 29.94 844 24.92 -4.7 23.6 64 -10.5 13.1
08:30 1014 29.94 844 24.92 -4.6 23.7 62 -10.7 12.7
08:35 1015 29.97 844 24.92 -4.6 23.6 64 -10.4 13.2
08:40 1015 29.97 844 24.92 -4.7 23.5 64 -10.5 13
08:45 1015 29.97 844 24.92 -4.8 23.3 64 -10.6 13
08:50 1015 29.97 844 24.92 -4.8 23.3 64 -10.6 12.9
08:55 1015 29.97 844 24.92 -4.8 23.4 64 -10.7 12.8
09:00 1014 29.94 844 24.92 -5.1 22.9 65 -10.7 12.8
09:05 1014 29.94 844 24.92 -5.1 22.9 62 -11.2 11.8
09:10 1014 29.94 844 24.92 -5.1 22.8 60 -11.6 11.1
09:15 1014 29.94 844 24.92 -4.8 23.3 60 -11.6 11.2
09:20 1014 29.94 844 24.92 -4.7 23.5 61 -11.2 11.9
09:25 1014 29.94 844 24.92 -4.8 23.3 61 -11.1 11.9
09:30 1014 29.94 844 24.92 -4.9 23.1 62 -11.1 12
09:35 1014 29.94 844 24.92 -4.9 23.1 64 -10.7 12.8
09:40 1014 29.94 844 24.92 -4.7 23.6 63 -10.8 12.6
09:45 1014 29.94 843 24.89 -4.6 23.7 56 -12.2 10
09:50 1014 29.94 843 24.89 -4.6 23.7 60 -11.3 11.7
09:55 1014 29.94 843 24.89 -4.6 23.7 63 -10.6 12.9
10:00 1014 29.94 843 24.89 -4.3 24.4 64 -10.1 13.8
10:05 1014 29.94 843 24.89 -3.9 24.9 59 -10.8 12.5
10:10 1014 29.94 843 24.89 -3.4 25.9 56 -10.9 12.3
10:15 1014 29.94 843 24.89 -2.8 26.9 53 -11.2 11.8
10:20 1014 29.94 843 24.89 -2.3 27.9 47 -12 10.4
10:25 1014 29.94 843 24.89 -2.1 28.3 48 -11.6 11.1
10:30 1014 29.94 843 24.89 -2.4 27.7 44 -13.1 8.5
10:35 1014 29.94 843 24.89 -2.5 27.5 48 -12 10.4
10:40 1014 29.94 843 24.89 -2.8 26.9 47 -12.6 9.4
10:45 1014 29.94 843 24.89 -2.5 27.5 43 -13.3 8
10:50 1014 29.94 843 24.89 -2.8 27.1 44 -13.3 8.1
10:55 1014 29.94 843 24.89 -2.8 27 44 -13.5 7.7
11:00 1014 29.94 843 24.89 -2.6 27.2 43 -13.7 7.3
11:05 1014 29.94 843 24.89 -1.9 28.6 42 -13.2 8.3
11:10 1014 29.94 843 24.89 -1.2 29.8 40 -13.2 8.2
11:15 1014 29.94 843 24.89 -1.7 28.9 43 -12.8 9
11:20 1014 29.94 843 24.89 -2.1 28.2 40 -14 6.8
11:25 1014 29.94 843 24.89 -2.2 28.1 42 -13.4 7.9
11:30 1014 29.94 843 24.89 -2.1 28.3 41 -13.6 7.6
11:35 1014 29.94 843 24.89 -2.6 27.3 42 -13.8 7.1
11:40 1014 29.94 843 24.89 -2.4 27.6 39 -14.6 5.7
11:45 1014 29.94 843 24.89 -2.3 27.9 41 -13.8 7.1
11:50 1014 29.94 843 24.89 -2.2 28 40 -14.1 6.6
11:55 1014 29.94 843 24.89 -2.1 28.1 40 -14.1 6.6
12:00 1014 29.94 843 24.89 -1.7 29 39 -14 6.9
12:05 1014 29.94 843 24.89 -1.6 29.1 40 -13.6 7.6
12:10 1014 29.94 843 24.89 -1.2 29.8 39 -13.6 7.5
12:15 1014 29.94 843 24.89 -0.7 30.8 36 -14 6.9
12:20 1013 29.91 843 24.89 -1.3 29.7 38 -13.9 7
12:25 1013 29.91 843 24.89 -0.7 30.7 34 -14.8 5.3
12:30 1013 29.91 842 24.86 -1 30.2 35 -14.7 5.6
12:35 1013 29.91 842 24.86 -0.5 31.1 35 -14.3 6.3
12:40 1013 29.91 842 24.86 -0 32 35 -13.7 7.4
12:45 1013 29.91 842 24.86 0.1 32.1 35 -13.7 7.3
12:50 1013 29.91 842 24.86 -0.2 31.6 39 -12.5 9.5
12:55 1013 29.91 842 24.86 -0.3 31.5 40 -12.4 9.7
13:00 1013 29.91 842 24.86 0.1 32.2 35 -13.7 7.4
13:05 1013 29.91 842 24.86 0.2 32.4 33 -14.1 6.6
13:10 1012 29.88 842 24.86 -0.7 30.8 37 -13.6 7.5
13:15 1012 29.88 842 24.86 -0.5 31.1 38 -13.2 8.2
13:20 1012 29.88 842 24.86 -0 32 35 -13.6 7.5
13:25 1012 29.88 841 24.83 0.1 32.1 34 -14.2 6.5
13:30 1012 29.88 841 24.83 -0.6 30.9 35 -14.3 6.3
13:35 1012 29.88 841 24.83 -0.8 30.6 37 -13.7 7.4
13:40 1012 29.88 841 24.83 -0.7 30.7 39 -13 8.7
13:45 1012 29.88 841 24.83 -0.7 30.7 35 -14.3 6.3
13:50 1012 29.88 841 24.83 -0.3 31.4 35 -13.9 7
13:55 1012 29.88 841 24.83 -0.4 31.4 35 -14.1 6.7
14:00 1012 29.88 841 24.83 -0.1 31.9 34 -14.3 6.2
14:05 1012 29.88 841 24.83 -0.1 31.9 38 -12.7 9.1
14:10 1012 29.88 841 24.83 -0.3 31.5 35 -13.9 6.9
14:15 1012 29.88 841 24.83 0.3 32.6 33 -14.2 6.4
14:20 1012 29.88 841 24.83 0.2 32.4 35 -13.7 7.3
14:25 1012 29.88 841 24.83 -0.5 31.1 37 -13.6 7.5
14:30 1012 29.88 841 24.83 -0.9 30.4 35 -14.4 6.1
14:35 1012 29.88 841 24.83 -0.7 30.7 35 -14.5 5.9
14:40 1012 29.88 841 24.83 -0.6 30.9 36 -13.9 7
14:45 1012 29.88 841 24.83 -0.9 30.4 35 -14.7 5.6
14:50 1012 29.88 841 24.83 -0.6 30.9 34 -14.6 5.8
14:55 1012 29.88 841 24.83 -0.8 30.5 37 -13.8 7.2
15:00 1012 29.88 841 24.83 -1.3 29.7 39 -13.7 7.4
15:05 1012 29.88 841 24.83 -1.2 29.9 37 -14 6.8
15:10 1012 29.88 841 24.83 -1.8 28.8 41 -13.5 7.7
15:15 1012 29.88 841 24.83 -1.8 28.8 40 -13.8 7.2
15:20 1012 29.88 841 24.83 -2.1 28.1 43 -13.1 8.5
15:25 1012 29.88 841 24.83 -2.5 27.5 47 -12.3 9.9
15:30 1012 29.88 841 24.83 -2.1 28.3 43 -13.1 8.4
15:35 1012 29.88 841 24.83 -1.3 29.6 43 -12.3 9.9
15:40 1012 29.88 841 24.83 -0.9 30.3 42 -12.3 9.9
15:45 1012 29.88 841 24.83 -1 30.3 44 -11.9 10.6
15:50 1012 29.88 841 24.83 -0.9 30.4 43 -12.1 10.2
15:55 1012 29.88 841 24.83 -0.8 30.5 42 -12.2 10.1
16:00 1012 29.88 841 24.83 -0.8 30.5 42 -12.2 10
16:05 1012 29.88 841 24.83 -1 30.1 45 -11.4 11.4
16:10 1012 29.88 841 24.83 -1.3 29.7 46 -11.5 11.3
16:15 1012 29.88 841 24.83 -1.7 28.9 45 -12.2 10
16:20 1012 29.88 841 24.83 -2.1 28.2 42 -13.4 8
16:25 1012 29.88 841 24.83 -2.1 28.3 43 -12.9 8.7
16:30 1012 29.88 841 24.83 -1.8 28.7 42 -13.1 8.5
16:35 1012 29.88 841 24.83 -1.9 28.6 45 -12.4 9.6
16:40 1012 29.88 841 24.83 -2.6 27.3 52 -11.1 12.1
16:45 1012 29.88 841 24.83 -3.1 26.4 52 -11.6 11.1
16:50 1012 29.88 841 24.83 -2.8 27 52 -11.4 11.5
16:55 1012 29.88 841 24.83 -2.9 26.9 52 -11.4 11.5
17:00 1012 29.88 842 24.86 -2.3 27.8 50 -11.4 11.5
17:05 1012 29.88 842 24.86 -2.2 28.1 47 -12.1 10.2
17:10 1012 29.88 842 24.86 -1.9 28.6 48 -11.5 11.3
17:15 1012 29.88 842 24.86 -1.9 28.5 45 -12.4 9.8
17:20 1013 29.91 842 24.86 -1.9 28.7 44 -12.5 9.6
17:25 1013 29.91 842 24.86 -1.8 28.7 47 -11.7 10.9
17:30 1013 29.91 842 24.86 -1.6 29.2 49 -10.9 12.4
17:35 1013 29.91 842 24.86 -2 28.4 53 -10.3 13.4
17:40 1013 29.91 842 24.86 -2.3 27.9 54 -10.3 13.5
17:45 1013 29.91 842 24.86 -2.9 26.8 56 -10.6 13
17:50 1013 29.91 842 24.86 -3 26.7 56 -10.6 12.9
17:55 1013 29.91 842 24.86 -2.9 26.7 56 -10.5 13.2
18:00 1013 29.91 842 24.86 -3.1 26.4 58 -10.3 13.5
18:05 1013 29.91 842 24.86 -3.2 26.3 60 -9.9 14.3
18:10 1013 29.91 842 24.86 -3.3 26.1 61 -9.6 14.6
18:15 1013 29.91 843 24.89 -3.3 26.1 63 -9.4 15
18:20 1013 29.91 843 24.89 -3.5 25.6 64 -9.3 15.2
18:25 1014 29.94 843 24.89 -3.7 25.3 67 -8.9 15.9
18:30 1014 29.94 843 24.89 -3.9 24.9 68 -9 15.8
18:35 1014 29.94 843 24.89 -4.1 24.6 66 -9.5 15
18:40 1014 29.94 843 24.89 -4.2 24.4 66 -9.7 14.5
18:45 1014 29.94 843 24.89 -4.2 24.4 65 -9.8 14.3
18:50 1014 29.94 843 24.89 -4.3 24.2 65 -10 14
18:55 1014 29.94 843 24.89 -4.2 24.4 65 -9.9 14.2
19:00 1014 29.94 843 24.89 -4.2 24.4 64 -10.1 13.9
19:05 1014 29.94 843 24.89 -4.2 24.4 64 -10 13.9
19:10 1014 29.94 844 24.92 -4.1 24.6 62 -10.4 13.3
19:15 1014 29.94 844 24.92 -4.2 24.5 64 -10 14
19:20 1014 29.94 844 24.92 -4 24.7 64 -9.9 14.1
19:25 1015 29.97 844 24.92 -4.2 24.5 65 -9.8 14.4
19:30 1015 29.97 844 24.92 -4.9 23.1 71 -9.3 15.2
19:35 1015 29.97 844 24.92 -5.7 21.7 73 -9.9 14.2
19:40 1015 29.97 844 24.92 -5.6 21.8 73 -9.8 14.3
19:45 1015 29.97 844 24.92 -5.2 22.6 71 -9.7 14.5
19:50 1015 29.97 844 24.92 -4.9 23.1 69 -9.8 14.4
19:55 1015 29.97 844 24.92 -5.2 22.7 70 -9.9 14.3
20:00 1015 29.97 844 24.92 -5.3 22.5 70 -9.8 14.3
20:05 1015 29.97 844 24.92 -5.4 22.3 70 -10.1 13.8
20:10 1015 29.97 844 24.92 -5.3 22.4 69 -10.1 13.9
20:15 1015 29.97 844 24.92 -5.1 22.8 69 -10 14
20:20 1015 29.97 844 24.92 -5 23 68 -10 13.9
20:25 1015 29.97 844 24.92 -4.9 23.2 68 -10 14
20:30 1015 29.97 844 24.92 -5 23.1 68 -9.9 14.2
20:35 1015 29.97 844 24.92 -4.8 23.3 69 -9.7 14.5
20:40 1015 29.97 845 24.95 -4.8 23.4 70 -9.5 14.9
20:45 1015 29.97 845 24.95 -4.6 23.8 70 -9.3 15.3
20:50 1015 29.97 845 24.95 -4.7 23.6 68 -9.7 14.6
20:55 1015 29.97 845 24.95 -4.6 23.7 66 -10 14
21:00 1015 29.97 845 24.95 -4.6 23.6 66 -10.1 13.9
21:05 1015 29.97 845 24.95 -4.7 23.5 66 -10.1 13.8
21:10 1016 30 845 24.95 -4.8 23.3 66 -10.3 13.5
21:15 1016 30 845 24.95 -5.2 22.6 70 -9.9 14.2
21:20 1016 30 845 24.95 -5.5 22.1 69 -10.3 13.4
21:25 1016 30 845 24.95 -5.8 21.5 70 -10.4 13.3
21:30 1016 30 845 24.95 -5.9 21.3 68 -10.9 12.4
21:35 1016 30 845 24.95 -6.1 21 67 -11.2 11.8
21:40 1016 30 845 24.95 -6.4 20.5 66 -11.7 11
21:45 1016 30 845 24.95 -6.6 20.1 65 -12.2 10.1
21:50 1016 30 845 24.95 -6.6 20.1 64 -12.3 9.8
21:55 1016 30 845 24.95 -6.4 20.4 63 -12.3 9.9
22:00 1016 30 845 24.95 -6.5 20.3 63 -12.4 9.7
22:05 1016 30 845 24.95 -6.6 20 63 -12.7 9.2
22:10 1016 30 845 24.95 -6.7 19.9 62 -12.8 8.9
22:15 1016 30 846 24.98 -6.7 19.9 62 -12.8 8.9
22:20 1016 30 846 24.98 -6.7 20 61 -13 8.7
22:25 1016 30 846 24.98 -6.9 19.6 63 -12.9 8.8
22:30 1017 30.03 846 24.98 -7.2 19.1 63 -13.1 8.5
22:35 1017 30.03 846 24.98 -7.4 18.6 63 -13.2 8.2
22:40 1017 30.03 846 24.98 -7.5 18.5 63 -13.4 7.9
22:45 1017 30.03 846 24.98 -7.4 18.6 63 -13.4 7.9
22:50 1017 30.03 846 24.98 -7.6 18.3 64 -13.2 8.2
22:55 1017 30.03 846 24.98 -7.8 17.9 65 -13.4 7.9
23:00 1017 30.03 846 24.98 -7.6 18.3 62 -13.8 7.2
23:05 1017 30.03 846 24.98 -7.5 18.5 62 -13.6 7.6
23:10 1017 30.03 846 24.98 -8 17.5 64 -13.6 7.5
23:15 1017 30.03 846 24.98 -8.3 17.1 64 -13.9 6.9
23:20 1017 30.03 846 24.98 -8.4 16.9 64 -14.1 6.7
23:25 1017 30.03 846 24.98 -8.3 17.1 64 -13.9 6.9
23:30 1017 30.03 846 24.98 -8.3 17.1 64 -14 6.8
23:35 1017 30.03 846 24.98 -7.9 17.8 62 -14 6.8
23:40 1017 30.03 846 24.98 -7.7 18.1 62 -13.8 7.2
23:45 1017 30.03 846 24.98 -7.6 18.3 62 -13.6 7.4
23:50 1017 30.03 846 24.98 -7.4 18.7 62 -13.5 7.7
23:55 1017 30.03 846 24.98 -7.3 18.8 62 -13.4 7.8
24:00 1017 30.03 847 25.01 -7.2 19.1 61 -13.5 7.6